Minerva Atlantica — ZCPR7 — position and weather

sailwx.info

Track history (hours):
 
Tides and Currents Weather Stations Pressure Air Temp Water Temp Dewpoint Dewpoint Depression Visibility Wind Speed Wind Dir Waves Ship Positions

Minerva Atlantica

Last reported at 2017-Apr-24 01:09 UTC. Time now 2017-Apr-25 08:50 UTC.
Position N 57°49' E 010°27'.

Length 250 m; draft 13.8 m.

Type: Ship (hazmat cat A). MMSI: 319161000.

Date/timePositionNaut miles runAvg speedWind from/ knotsBaromVisibWave heightAir tempDewpointWater temp
2017-Apr-24 01:09N 57°49' E 010°27'211.8
2017-Apr-24 00:57N 57°49' E 010°32'511.5
2017-Apr-24 00:31N 57°49' E 010°41'5 9.7
2017-Apr-24 00:00N 57°45' E 010°47'3 5.4
2017-Apr-23 23:30N 57°43' E 010°46'2 4.3
2017-Apr-23 23:00N 57°41' E 010°46'5 9.6
2017-Apr-23 22:29N 57°36' E 010°45'510.7
2017-Apr-23 22:00N 57°31' E 010°42'1 2.4
2017-Apr-23 21:30N 57°30' E 010°41'0 0.2
2017-Apr-23 21:00N 57°30' E 010°41'0 0.2
2017-Apr-23 20:30N 57°30' E 010°41'0 0.1
2017-Apr-23 19:57N 57°30' E 010°41'0 0.0
2017-Apr-23 19:30N 57°30' E 010°41'0 0.2
2017-Apr-23 19:00N 57°30' E 010°41'0 0.0
2017-Apr-23 18:30N 57°30' E 010°41'0 0.0
2017-Apr-23 17:21N 57°30' E 010°41'0 0.1
2017-Apr-23 17:00N 57°30' E 010°41'0 0.0
2017-Apr-23 16:24N 57°30' E 010°41'0 0.0
2017-Apr-23 16:00N 57°30' E 010°41'0 0.1
2017-Apr-23 15:27N 57°30' E 010°41'0 0.0
2017-Apr-23 14:54N 57°29' E 010°41'0 0.1
2017-Apr-23 14:00N 57°29' E 010°41'0 0.0
2017-Apr-23 13:30N 57°29' E 010°41'0 0.1
2017-Apr-23 13:00N 57°29' E 010°41'0 0.0
2017-Apr-23 11:30N 57°29' E 010°41'0 0.1
2017-Apr-23 10:57N 57°29' E 010°41'0 0.1
2017-Apr-23 10:30N 57°29' E 010°41'0 0.0
2017-Apr-23 09:57N 57°29' E 010°41'0 0.0
2017-Apr-23 09:30N 57°29' E 010°41'0 0.1
2017-Apr-23 08:51N 57°29' E 010°41'0 0.1
2017-Apr-23 08:30N 57°29' E 010°41'0 0.0
2017-Apr-23 07:57N 57°29' E 010°41'0 0.1
2017-Apr-23 07:30N 57°29' E 010°41'0 0.0
2017-Apr-23 07:00N 57°29' E 010°41'0 0.0
2017-Apr-23 06:30N 57°29' E 010°41'0 0.0
2017-Apr-23 06:00N 57°29' E 010°41'0 0.0
2017-Apr-23 05:30N 57°29' E 010°41'0 0.1
2017-Apr-23 05:00N 57°29' E 010°41'0 0.1
2017-Apr-23 04:30N 57°29' E 010°41'0 0.1
2017-Apr-23 04:00N 57°30' E 010°41'0 0.1
2017-Apr-23 03:30N 57°30' E 010°41'0 0.0
2017-Apr-23 02:58N 57°30' E 010°41'0 0.0
2017-Apr-23 02:28N 57°30' E 010°41'0 0.0
2017-Apr-23 01:52N 57°30' E 010°41'0 0.1
2017-Apr-23 01:19N 57°29' E 010°41'0 0.0
2017-Apr-23 00:40N 57°29' E 010°41'0 0.0
2017-Apr-23 00:25N 57°29' E 010°41'0 0.0
2017-Apr-22 23:37N 57°30' E 010°41'0 0.0
2017-Apr-22 23:07N 57°30' E 010°41'0 0.0
2017-Apr-22 22:58N 57°30' E 010°41'0 0.1
2017-Apr-22 22:25N 57°30' E 010°41'0 0.1
2017-Apr-22 21:58N 57°30' E 010°41'0 0.0
2017-Apr-22 21:16N 57°30' E 010°41'0 0.0
2017-Apr-22 20:58N 57°30' E 010°41'0 0.0
2017-Apr-22 20:25N 57°30' E 010°41'0 0.0
2017-Apr-22 19:58N 57°30' E 010°41'0 0.1
2017-Apr-22 19:13N 57°30' E 010°41'0 0.0
2017-Apr-22 18:52N 57°30' E 010°41'0 0.0
2017-Apr-22 18:13N 57°30' E 010°41'0 0.1
2017-Apr-22 17:55N 57°30' E 010°41'0 0.1
2017-Apr-22 17:22N 57°30' E 010°41'0 0.0
2017-Apr-22 16:49N 57°30' E 010°41'0 0.1
2017-Apr-22 14:16N 57°29' E 010°41'0 0.1
2017-Apr-22 13:19N 57°29' E 010°41'0 0.1
2017-Apr-22 12:58N 57°29' E 010°41'0 0.0
2017-Apr-22 11:52N 57°29' E 010°41'0 0.0
2017-Apr-22 11:22N 57°29' E 010°41'0 0.0
2017-Apr-22 10:52N 57°29' E 010°41'0 0.0
2017-Apr-22 10:28N 57°29' E 010°41'0 0.2
2017-Apr-22 09:58N 57°29' E 010°41'0 0.1
2017-Apr-22 09:10N 57°30' E 010°41'0 0.0
2017-Apr-22 08:52N 57°29' E 010°41'0 0.0
2017-Apr-22 07:52N 57°29' E 010°41'0 0.0
2017-Apr-22 07:10N 57°30' E 010°41'0 0.1
2017-Apr-22 06:52N 57°30' E 010°41'0 0.0
2017-Apr-22 05:40N 57°30' E 010°41'0 0.0
2017-Apr-22 05:22N 57°30' E 010°41'0 0.1
2017-Apr-22 04:52N 57°30' E 010°41'0 0.1
2017-Apr-22 04:04N 57°29' E 010°41'0 0.0
2017-Apr-22 03:55N 57°29' E 010°41'0 0.0
2017-Apr-22 03:19N 57°29' E 010°41'0 0.0
2017-Apr-22 02:49N 57°29' E 010°41'0 0.0
2017-Apr-22 02:25N 57°29' E 010°41'0 0.0
2017-Apr-22 01:13N 57°29' E 010°41'0 0.0
2017-Apr-22 00:55N 57°29' E 010°41'0 0.0
2017-Apr-22 00:07N 57°29' E 010°41'0 0.0
2017-Apr-21 23:46N 57°29' E 010°41'0 0.0
2017-Apr-21 23:28N 57°29' E 010°41'0 0.0
2017-Apr-21 22:55N 57°29' E 010°41'0 0.0
2017-Apr-21 22:28N 57°29' E 010°41'0 0.0
2017-Apr-21 21:55N 57°29' E 010°41'0 0.0
2017-Apr-21 21:25N 57°29' E 010°41'0 0.0
2017-Apr-21 20:58N 57°29' E 010°41'0 0.0
2017-Apr-21 20:22N 57°30' E 010°41'0 0.1
2017-Apr-21 19:46N 57°30' E 010°41'0 0.1
2017-Apr-21 19:22N 57°30' E 010°41'0 0.0
2017-Apr-21 18:52N 57°30' E 010°41'0 0.1
2017-Apr-21 18:28N 57°30' E 010°41'0 0.1
2017-Apr-21 17:49N 57°30' E 010°41'0 0.0
2017-Apr-21 17:13N 57°30' E 010°41'0 0.1
2017-Apr-21 16:58N 57°30' E 010°41'0 0.0
2017-Apr-21 16:25N 57°30' E 010°41'0 0.1
2017-Apr-21 15:58N 57°30' E 010°41'0 0.1
2017-Apr-21 15:28N 57°30' E 010°41'0 0.5
2017-Apr-21 14:55N 57°29' E 010°41'1 1.4
2017-Apr-21 14:30N 57°30' E 010°42'9 8.9
2017-Apr-21 13:30N 57°39' E 010°44'5 9.9
2017-Apr-21 12:59N 57°44' E 010°45'4 7.9
2017-Apr-21 12:30N 57°44' E 010°52'4 8.3
2017-Apr-21 11:59N 57°43' E 010°60'4 8.9
2017-Apr-21 11:30N 57°41' E 011°07'5 9.3
2017-Apr-21 11:00N 57°40' E 011°15'5 9.6
2017-Apr-21 10:30N 57°38' E 011°24'5 9.5
2017-Apr-21 10:00N 57°36' E 011°32'4 7.7
2017-Apr-21 09:30N 57°35' E 011°39'4 8.0
2017-Apr-21 09:00N 57°39' E 011°41'4 7.8
2017-Apr-21 08:30N 57°41' E 011°48'2 4.8
2017-Apr-21 08:01N 57°41' E 011°52'0 0.3
2017-Apr-21 07:30N 57°41' E 011°53'0 0.0
2017-Apr-21 06:57N 57°41' E 011°53'0 0.0
2017-Apr-21 06:30N 57°41' E 011°53'0 0.0
2017-Apr-21 06:00N 57°41' E 011°53'0 0.0
2017-Apr-21 05:30N 57°41' E 011°53'0 0.0
2017-Apr-21 05:00N 57°41' E 011°53'0 0.0
2017-Apr-21 04:30N 57°41' E 011°53'0 0.0
2017-Apr-21 03:57N 57°41' E 011°53'0 0.0
2017-Apr-21 03:30N 57°41' E 011°53'0 0.0
2017-Apr-21 03:00N 57°41' E 011°53'0 0.0
2017-Apr-21 02:30N 57°41' E 011°53'0 0.0
2017-Apr-21 02:00N 57°41' E 011°53'0 0.0
2017-Apr-21 01:30N 57°41' E 011°53'0 0.0
2017-Apr-21 01:00N 57°41' E 011°53'0 0.0
2017-Apr-21 00:30N 57°41' E 011°53'0 0.0
2017-Apr-21 00:00N 57°41' E 011°53'0 0.0
2017-Apr-20 23:30N 57°41' E 011°53'0 0.0
2017-Apr-20 23:00N 57°41' E 011°53'0 0.0
2017-Apr-20 22:30N 57°41' E 011°53'0 0.0
2017-Apr-20 22:00N 57°41' E 011°53'0 0.0
2017-Apr-20 21:30N 57°41' E 011°53'0 0.0
2017-Apr-20 21:00N 57°41' E 011°53'0 0.0
2017-Apr-20 20:30N 57°41' E 011°53'0 0.0
2017-Apr-20 20:00N 57°41' E 011°53'0 0.0
2017-Apr-20 19:30N 57°41' E 011°53'0 0.0
2017-Apr-20 19:00N 57°41' E 011°53'0 0.0
2017-Apr-20 18:30N 57°41' E 011°53'0 0.0
2017-Apr-20 18:00N 57°41' E 011°53'0 0.0
2017-Apr-20 17:27N 57°41' E 011°53'0 0.0
2017-Apr-20 16:57N 57°41' E 011°53'0 0.0
2017-Apr-20 16:30N 57°41' E 011°53'0 0.0
2017-Apr-20 16:00N 57°41' E 011°53'0 0.0
2017-Apr-20 15:30N 57°41' E 011°53'0 0.0
2017-Apr-20 15:00N 57°41' E 011°53'0 0.0
2017-Apr-20 14:00N 57°41' E 011°53'0 0.0
2017-Apr-20 13:30N 57°41' E 011°53'0 0.0
2017-Apr-20 13:00N 57°41' E 011°53'0 0.0
2017-Apr-20 12:30N 57°41' E 011°53'0 0.0
2017-Apr-20 12:00N 57°41' E 011°53'0 0.0
2017-Apr-20 11:30N 57°41' E 011°53'0 0.0
2017-Apr-20 11:00N 57°41' E 011°53'0 0.0
2017-Apr-20 10:30N 57°41' E 011°53'0 0.0
2017-Apr-20 10:00N 57°41' E 011°53'0 0.0
2017-Apr-20 09:30N 57°41' E 011°53'0 0.0
2017-Apr-20 09:00N 57°41' E 011°53'0 0.0
2017-Apr-20 08:30N 57°41' E 011°53'0 0.0
2017-Apr-20 08:00N 57°41' E 011°53'0 0.0
2017-Apr-20 07:30N 57°41' E 011°53'0 0.0
2017-Apr-20 07:00N 57°41' E 011°53'0 0.0
2017-Apr-20 06:30N 57°41' E 011°53'0 0.0
2017-Apr-20 06:00N 57°41' E 011°53'0 0.0
2017-Apr-20 05:30N 57°41' E 011°53'0 0.0
2017-Apr-20 05:00N 57°41' E 011°53'0 0.0
2017-Apr-20 04:30N 57°41' E 011°53'0 0.0
2017-Apr-20 04:00N 57°41' E 011°53'0 0.0
2017-Apr-20 03:30N 57°41' E 011°53'0 0.0
2017-Apr-20 03:00N 57°41' E 011°53'0 0.0
2017-Apr-20 02:30N 57°41' E 011°53'0 0.0
2017-Apr-20 02:00N 57°41' E 011°53'0 0.0
2017-Apr-20 01:30N 57°41' E 011°53'0 0.0
2017-Apr-20 01:00N 57°41' E 011°53'0 0.0
2017-Apr-20 00:30N 57°41' E 011°53'0 0.0
2017-Apr-20 00:00N 57°41' E 011°53'0 0.0
2017-Apr-19 23:30N 57°41' E 011°53'0 0.0
2017-Apr-19 23:00N 57°41' E 011°53'0 0.0
2017-Apr-19 22:30N 57°41' E 011°53'0 0.0
2017-Apr-19 22:00N 57°41' E 011°53'0 0.0
2017-Apr-19 21:30N 57°41' E 011°53'0 0.0
2017-Apr-19 21:00N 57°41' E 011°53'0 0.0
2017-Apr-19 20:30N 57°41' E 011°53'0 0.0
2017-Apr-19 20:00N 57°41' E 011°53'0 0.0
2017-Apr-19 19:30N 57°41' E 011°53'0 0.0
2017-Apr-19 19:00N 57°41' E 011°53'0 0.0
2017-Apr-19 18:27N 57°41' E 011°53'0 0.0
2017-Apr-19 17:57N 57°41' E 011°53'0 0.0
2017-Apr-19 17:30N 57°41' E 011°53'0 0.0
2017-Apr-19 17:00N 57°41' E 011°53'0 0.0
2017-Apr-19 16:30N 57°41' E 011°53'0 0.0
2017-Apr-19 16:00N 57°41' E 011°53'0 0.0
2017-Apr-19 15:30N 57°41' E 011°53'0 0.0
2017-Apr-19 15:00N 57°41' E 011°53'0 0.0
2017-Apr-19 14:30N 57°41' E 011°53'0 0.0
2017-Apr-19 13:30N 57°41' E 011°53'0 0.0
2017-Apr-19 13:00N 57°41' E 011°53'0 0.0
2017-Apr-19 12:30N 57°41' E 011°53'0 0.0
2017-Apr-19 12:00N 57°41' E 011°53'0 0.0
2017-Apr-19 11:30N 57°41' E 011°53'0 0.0
2017-Apr-19 11:00N 57°41' E 011°53'0 0.0
2017-Apr-19 10:30N 57°41' E 011°53'0 0.0
2017-Apr-19 10:00N 57°41' E 011°53'0 0.0
2017-Apr-19 09:30N 57°41' E 011°53'0 0.0
2017-Apr-19 09:00N 57°41' E 011°53'0 0.0
2017-Apr-19 08:30N 57°41' E 011°53'0 0.0
2017-Apr-19 08:00N 57°41' E 011°53'0 0.0
2017-Apr-19 07:30N 57°41' E 011°53'0 0.0
2017-Apr-19 07:00N 57°41' E 011°53'0 0.0
2017-Apr-19 06:30N 57°41' E 011°53'0 0.0
2017-Apr-19 06:00N 57°41' E 011°53'0 0.0
2017-Apr-19 05:30N 57°41' E 011°53'0 0.0
2017-Apr-19 05:00N 57°41' E 011°53'0 0.0
2017-Apr-19 04:30N 57°41' E 011°53'0 0.0
2017-Apr-19 04:00N 57°41' E 011°53'0 0.0
2017-Apr-19 03:30N 57°41' E 011°53'0 0.0
2017-Apr-19 03:00N 57°41' E 011°53'0 0.0
2017-Apr-19 02:30N 57°41' E 011°53'0 0.0
2017-Apr-19 01:57N 57°41' E 011°53'0 0.0
2017-Apr-19 01:30N 57°41' E 011°53'0 0.0
2017-Apr-19 01:00N 57°41' E 011°53'0 0.0
2017-Apr-19 00:30N 57°41' E 011°53'0 0.0
2017-Apr-19 00:00N 57°41' E 011°53'0 0.0
2017-Apr-18 23:30N 57°41' E 011°53'0 0.0
2017-Apr-18 23:00N 57°41' E 011°53'0 0.0
2017-Apr-18 22:30N 57°41' E 011°53'0 0.0
2017-Apr-18 22:00N 57°41' E 011°53'0 0.0
2017-Apr-18 21:30N 57°41' E 011°53'0 0.0
2017-Apr-18 21:00N 57°41' E 011°53'0 0.0
2017-Apr-18 20:30N 57°41' E 011°53'0 0.0
2017-Apr-18 20:00N 57°41' E 011°53'0 0.0
2017-Apr-18 19:27N 57°41' E 011°53'0 0.0
2017-Apr-18 19:00N 57°41' E 011°53'0 0.0
2017-Apr-18 18:30N 57°41' E 011°53'0 0.0
2017-Apr-18 18:00N 57°41' E 011°53'0 0.0
2017-Apr-18 17:30N 57°41' E 011°53'0 0.0
2017-Apr-18 17:00N 57°41' E 011°53'0 0.0
2017-Apr-18 16:30N 57°41' E 011°53'0 0.0
2017-Apr-18 15:57N 57°41' E 011°53'0 0.0
2017-Apr-18 15:30N 57°41' E 011°53'0 0.0
2017-Apr-18 15:00N 57°41' E 011°53'0 0.0
2017-Apr-18 14:27N 57°41' E 011°53'0 0.0
2017-Apr-18 13:30N 57°41' E 011°53'0 0.0
2017-Apr-18 13:00N 57°41' E 011°53'0 0.0
2017-Apr-18 12:30N 57°41' E 011°53'0 0.0
2017-Apr-18 12:00N 57°41' E 011°53'0 0.0
2017-Apr-18 11:30N 57°41' E 011°53'0 0.0
2017-Apr-18 11:00N 57°41' E 011°53'0 0.0
2017-Apr-18 10:30N 57°41' E 011°53'0 0.0
2017-Apr-18 10:00N 57°41' E 011°53'0 0.0
2017-Apr-18 09:30N 57°41' E 011°53'0 0.0
2017-Apr-18 09:00N 57°41' E 011°53'0 0.0
2017-Apr-18 08:30N 57°41' E 011°53'0 0.0
2017-Apr-18 08:00N 57°41' E 011°53'0 0.0
2017-Apr-18 07:30N 57°41' E 011°53'0 0.0
2017-Apr-18 07:00N 57°41' E 011°53'0 0.0
2017-Apr-18 06:30N 57°41' E 011°53'0 0.0
2017-Apr-18 06:00N 57°41' E 011°53'0 0.0
2017-Apr-18 05:21N 57°41' E 011°53'0 0.0
2017-Apr-18 05:00N 57°41' E 011°53'0 0.0
2017-Apr-18 04:30N 57°41' E 011°53'0 0.0
2017-Apr-18 04:00N 57°41' E 011°53'0 0.0
2017-Apr-18 03:30N 57°41' E 011°53'0 0.0
2017-Apr-18 03:00N 57°41' E 011°53'0 0.0
2017-Apr-18 02:30N 57°41' E 011°53'0 0.0
2017-Apr-18 02:00N 57°41' E 011°53'0 0.0
2017-Apr-18 01:30N 57°41' E 011°53'0 0.0
2017-Apr-18 01:00N 57°41' E 011°53'0 0.0
2017-Apr-18 00:30N 57°41' E 011°53'0 0.0
2017-Apr-18 00:00N 57°41' E 011°53'0 0.0
2017-Apr-17 23:30N 57°41' E 011°53'0 0.0
2017-Apr-17 23:00N 57°41' E 011°53'0 0.0
2017-Apr-17 22:30N 57°41' E 011°53'0 0.0
2017-Apr-17 22:00N 57°41' E 011°53'0 0.0
2017-Apr-17 21:30N 57°41' E 011°53'0 0.0
2017-Apr-17 21:00N 57°41' E 011°53'0 0.0
2017-Apr-17 20:30N 57°41' E 011°53'0 0.0
2017-Apr-17 20:00N 57°41' E 011°53'0 0.0
2017-Apr-17 19:30N 57°41' E 011°53'0 0.0
2017-Apr-17 19:00N 57°41' E 011°53'0 0.0
2017-Apr-17 18:30N 57°41' E 011°53'0 0.0
2017-Apr-17 18:00N 57°41' E 011°53'0 0.0
2017-Apr-17 17:30N 57°41' E 011°53'0 0.0
2017-Apr-17 17:00N 57°41' E 011°53'0 0.0
2017-Apr-17 16:30N 57°41' E 011°53'0 0.0
2017-Apr-17 15:57N 57°41' E 011°53'0 0.0
2017-Apr-17 15:30N 57°41' E 011°53'0 0.0
2017-Apr-17 15:00N 57°41' E 011°53'0 0.0
2017-Apr-17 14:30N 57°41' E 011°53'0 0.0
2017-Apr-17 13:30N 57°41' E 011°53'0 0.0
2017-Apr-17 13:00N 57°41' E 011°53'0 0.0
2017-Apr-17 12:30N 57°41' E 011°53'0 0.0
2017-Apr-17 12:00N 57°41' E 011°53'0 0.0
2017-Apr-17 11:30N 57°41' E 011°53'0 0.0
2017-Apr-17 10:57N 57°41' E 011°53'0 0.0
2017-Apr-17 10:30N 57°41' E 011°53'0 0.0
2017-Apr-17 10:00N 57°41' E 011°53'0 0.0
2017-Apr-17 09:30N 57°41' E 011°53'0 0.0
2017-Apr-17 09:00N 57°41' E 011°53'0 0.0
2017-Apr-17 08:30N 57°41' E 011°53'0 0.0
2017-Apr-17 08:00N 57°41' E 011°53'0 0.0
2017-Apr-17 07:30N 57°41' E 011°53'0 0.0
2017-Apr-17 07:00N 57°41' E 011°53'0 0.0
2017-Apr-17 06:30N 57°41' E 011°53'0 0.0
2017-Apr-17 06:00N 57°41' E 011°53'0 0.0
2017-Apr-17 05:30N 57°41' E 011°53'0 0.0
2017-Apr-17 05:00N 57°41' E 011°53'0 0.0
2017-Apr-17 04:30N 57°41' E 011°53'0 0.0
2017-Apr-17 04:00N 57°41' E 011°53'0 0.0
2017-Apr-17 03:30N 57°41' E 011°53'0 0.0
2017-Apr-17 03:00N 57°41' E 011°53'0 0.0
2017-Apr-17 02:30N 57°41' E 011°53'0 0.0
2017-Apr-17 02:00N 57°41' E 011°53'0 0.0
2017-Apr-17 01:30N 57°41' E 011°53'0 0.0
2017-Apr-17 01:00N 57°41' E 011°53'0 0.0
2017-Apr-17 00:30N 57°41' E 011°53'0 0.0
2017-Apr-17 00:00N 57°41' E 011°53'0 0.0
2017-Apr-16 23:30N 57°41' E 011°53'0 0.0
2017-Apr-16 23:00N 57°41' E 011°53'0 0.0
2017-Apr-16 22:30N 57°41' E 011°53'0 0.0
2017-Apr-16 22:00N 57°41' E 011°53'0 0.0
2017-Apr-16 21:30N 57°41' E 011°53'0 0.0
2017-Apr-16 21:00N 57°41' E 011°53'0 0.0
2017-Apr-16 20:30N 57°41' E 011°53'0 0.0
2017-Apr-16 20:00N 57°41' E 011°53'0 0.0
2017-Apr-16 19:30N 57°41' E 011°53'0 0.0
2017-Apr-16 19:00N 57°41' E 011°53'0 0.0
2017-Apr-16 18:30N 57°41' E 011°53'0 0.0
2017-Apr-16 18:00N 57°41' E 011°53'0 0.0
2017-Apr-16 17:30N 57°41' E 011°53'0 0.0
2017-Apr-16 17:00N 57°41' E 011°53'0 0.0
2017-Apr-16 16:30N 57°41' E 011°53'0 0.0
2017-Apr-16 16:00N 57°41' E 011°53'0 0.0
2017-Apr-16 15:30N 57°41' E 011°53'0 0.0
2017-Apr-16 15:00N 57°41' E 011°53'0 0.0
2017-Apr-16 14:00N 57°41' E 011°53'0 0.0
2017-Apr-16 13:30N 57°41' E 011°53'0 0.0
2017-Apr-16 13:00N 57°41' E 011°53'0 0.0
2017-Apr-16 12:30N 57°41' E 011°53'0 0.0
2017-Apr-16 12:00N 57°41' E 011°53'0 0.0
2017-Apr-16 11:30N 57°41' E 011°53'0 0.0
2017-Apr-16 11:00N 57°41' E 011°53'0 0.0
2017-Apr-16 10:30N 57°41' E 011°53'0 0.0
2017-Apr-16 10:00N 57°41' E 011°53'0 0.0
2017-Apr-16 09:30N 57°41' E 011°53'0 0.0
2017-Apr-16 09:00N 57°41' E 011°53'0 0.0
2017-Apr-16 08:30N 57°41' E 011°53'0 0.0
2017-Apr-16 08:00N 57°41' E 011°53'0 0.0
2017-Apr-16 07:30N 57°41' E 011°53'0 0.0
2017-Apr-16 07:00N 57°41' E 011°53'0 0.0
2017-Apr-16 06:30N 57°41' E 011°53'0 0.0
2017-Apr-16 06:00N 57°41' E 011°53'0 0.0
2017-Apr-16 05:30N 57°41' E 011°53'0 0.0
2017-Apr-16 05:00N 57°41' E 011°53'0 0.0
2017-Apr-16 04:30N 57°41' E 011°53'0 0.0
2017-Apr-16 03:57N 57°41' E 011°53'0 0.0
2017-Apr-16 03:30N 57°41' E 011°53'0 0.0
2017-Apr-16 03:00N 57°41' E 011°53'0 0.0
2017-Apr-16 02:30N 57°41' E 011°53'0 0.0
2017-Apr-16 02:00N 57°41' E 011°53'0 0.0
2017-Apr-16 01:30N 57°41' E 011°53'0 0.0
2017-Apr-16 01:00N 57°41' E 011°53'0 0.0
2017-Apr-16 00:30N 57°41' E 011°53'0 0.0
2017-Apr-16 00:00N 57°41' E 011°53'0 0.0
2017-Apr-15 23:30N 57°41' E 011°53'0 0.0
2017-Apr-15 23:00N 57°41' E 011°53'0 0.0
2017-Apr-15 22:30N 57°41' E 011°53'0 0.0
2017-Apr-15 22:00N 57°41' E 011°53'0 0.0
2017-Apr-15 21:30N 57°41' E 011°53'0 0.0
2017-Apr-15 21:00N 57°41' E 011°53'0 0.0
2017-Apr-15 20:30N 57°41' E 011°53'0 0.0
2017-Apr-15 20:00N 57°41' E 011°53'0 0.2
2017-Apr-15 19:31N 57°41' E 011°53'2 3.8
2017-Apr-15 19:00N 57°41' E 011°49'4 8.2
2017-Apr-15 18:30N 57°40' E 011°42'510.2
2017-Apr-15 18:00N 57°35' E 011°38'4 8.9
2017-Apr-15 17:31N 57°34' E 011°30'510.3
2017-Apr-15 17:00N 57°37' E 011°23'510.7
2017-Apr-15 16:31N 57°41' E 011°16'510.8
2017-Apr-15 16:00N 57°45' E 011°09'510.0
2017-Apr-15 15:31N 57°48' E 011°02'4 8.7
2017-Apr-15 15:00N 57°51' E 010°56'9 9.2
2017-Apr-15 14:00N 57°52' E 010°39'5 9.8
2017-Apr-15 13:30N 57°52' E 010°29'4 9.1
2017-Apr-15 13:01N 57°52' E 010°21'4 8.8
2017-Apr-15 12:30N 57°52' E 010°13'212 9.4
2017-Apr-14 13:53N 55°08' E 006°07'410.0
2017-Apr-14 13:29N 55°05' E 006°05'5 9.9
2017-Apr-14 13:00N 54°60' E 006°03'5 9.9
2017-Apr-14 12:29N 54°55' E 006°00'5 9.8
2017-Apr-14 12:00N 54°51' E 005°58'5 9.8
2017-Apr-14 11:30N 54°46' E 005°55'5 9.8
2017-Apr-14 10:59N 54°41' E 005°53'5 9.8
2017-Apr-14 10:29N 54°36' E 005°50'510.2
2017-Apr-14 10:01N 54°33' E 005°44'510.6
2017-Apr-14 09:30N 54°30' E 005°36'510.6
2017-Apr-14 08:59N 54°27' E 005°29'510.5
2017-Apr-14 08:30N 54°24' E 005°22'510.4
2017-Apr-14 07:59N 54°20' E 005°15'510.4
2017-Apr-14 07:30N 54°17' E 005°08'510.4
2017-Apr-14 07:00N 54°14' E 005°00'510.2
2017-Apr-14 06:30N 54°11' E 004°54'510.4
2017-Apr-14 05:59N 54°08' E 004°46'510.2
2017-Apr-14 05:30N 54°04' E 004°41'1010.3
2017-Apr-14 04:31N 53°54' E 004°35'  
Track history (hours):
 
Tides and Currents Weather Stations Pressure Air Temp Water Temp Dewpoint Dewpoint Depression Visibility Wind Speed Wind Dir Waves Ship Positions

Minerva Atlantica

Last reported at 2017-Apr-24 01:09 UTC. Time now 2017-Apr-25 08:50 UTC.
Position N 57°49' E 010°27'.

Length 250 m; draft 13.8 m.

Type: Ship (hazmat cat A). MMSI: 319161000.

Date/timePositionNaut miles runAvg speedWind from/ knotsBaromVisibWave heightAir tempDewpointWater temp
2017-Apr-24 01:09N 57°49' E 010°27'211.8
2017-Apr-24 00:57N 57°49' E 010°32'511.5
2017-Apr-24 00:31N 57°49' E 010°41'5 9.7
2017-Apr-24 00:00N 57°45' E 010°47'3 5.4
2017-Apr-23 23:30N 57°43' E 010°46'2 4.3
2017-Apr-23 23:00N 57°41' E 010°46'5 9.6
2017-Apr-23 22:29N 57°36' E 010°45'510.7
2017-Apr-23 22:00N 57°31' E 010°42'1 2.4
2017-Apr-23 21:30N 57°30' E 010°41'0 0.2
2017-Apr-23 21:00N 57°30' E 010°41'0 0.2
2017-Apr-23 20:30N 57°30' E 010°41'0 0.1
2017-Apr-23 19:57N 57°30' E 010°41'0 0.0
2017-Apr-23 19:30N 57°30' E 010°41'0 0.2
2017-Apr-23 19:00N 57°30' E 010°41'0 0.0
2017-Apr-23 18:30N 57°30' E 010°41'0 0.0
2017-Apr-23 17:21N 57°30' E 010°41'0 0.1
2017-Apr-23 17:00N 57°30' E 010°41'0 0.0
2017-Apr-23 16:24N 57°30' E 010°41'0 0.0
2017-Apr-23 16:00N 57°30' E 010°41'0 0.1
2017-Apr-23 15:27N 57°30' E 010°41'0 0.0
2017-Apr-23 14:54N 57°29' E 010°41'0 0.1
2017-Apr-23 14:00N 57°29' E 010°41'0 0.0
2017-Apr-23 13:30N 57°29' E 010°41'0 0.1
2017-Apr-23 13:00N 57°29' E 010°41'0 0.0
2017-Apr-23 11:30N 57°29' E 010°41'0 0.1
2017-Apr-23 10:57N 57°29' E 010°41'0 0.1
2017-Apr-23 10:30N 57°29' E 010°41'0 0.0
2017-Apr-23 09:57N 57°29' E 010°41'0 0.0
2017-Apr-23 09:30N 57°29' E 010°41'0 0.1
2017-Apr-23 08:51N 57°29' E 010°41'0 0.1
2017-Apr-23 08:30N 57°29' E 010°41'0 0.0
2017-Apr-23 07:57N 57°29' E 010°41'0 0.1
2017-Apr-23 07:30N 57°29' E 010°41'0 0.0
2017-Apr-23 07:00N 57°29' E 010°41'0 0.0
2017-Apr-23 06:30N 57°29' E 010°41'0 0.0
2017-Apr-23 06:00N 57°29' E 010°41'0 0.0
2017-Apr-23 05:30N 57°29' E 010°41'0 0.1
2017-Apr-23 05:00N 57°29' E 010°41'0 0.1
2017-Apr-23 04:30N 57°29' E 010°41'0 0.1
2017-Apr-23 04:00N 57°30' E 010°41'0 0.1
2017-Apr-23 03:30N 57°30' E 010°41'0 0.0
2017-Apr-23 02:58N 57°30' E 010°41'0 0.0
2017-Apr-23 02:28N 57°30' E 010°41'0 0.0
2017-Apr-23 01:52N 57°30' E 010°41'0 0.1
2017-Apr-23 01:19N 57°29' E 010°41'0 0.0
2017-Apr-23 00:40N 57°29' E 010°41'0 0.0
2017-Apr-23 00:25N 57°29' E 010°41'0 0.0
2017-Apr-22 23:37N 57°30' E 010°41'0 0.0
2017-Apr-22 23:07N 57°30' E 010°41'0 0.0
2017-Apr-22 22:58N 57°30' E 010°41'0 0.1
2017-Apr-22 22:25N 57°30' E 010°41'0 0.1
2017-Apr-22 21:58N 57°30' E 010°41'0 0.0
2017-Apr-22 21:16N 57°30' E 010°41'0 0.0
2017-Apr-22 20:58N 57°30' E 010°41'0 0.0
2017-Apr-22 20:25N 57°30' E 010°41'0 0.0
2017-Apr-22 19:58N 57°30' E 010°41'0 0.1
2017-Apr-22 19:13N 57°30' E 010°41'0 0.0
2017-Apr-22 18:52N 57°30' E 010°41'0 0.0
2017-Apr-22 18:13N 57°30' E 010°41'0 0.1
2017-Apr-22 17:55N 57°30' E 010°41'0 0.1
2017-Apr-22 17:22N 57°30' E 010°41'0 0.0
2017-Apr-22 16:49N 57°30' E 010°41'0 0.1
2017-Apr-22 14:16N 57°29' E 010°41'0 0.1
2017-Apr-22 13:19N 57°29' E 010°41'0 0.1
2017-Apr-22 12:58N 57°29' E 010°41'0 0.0
2017-Apr-22 11:52N 57°29' E 010°41'0 0.0
2017-Apr-22 11:22N 57°29' E 010°41'0 0.0
2017-Apr-22 10:52N 57°29' E 010°41'0 0.0
2017-Apr-22 10:28N 57°29' E 010°41'0 0.2
2017-Apr-22 09:58N 57°29' E 010°41'0 0.1
2017-Apr-22 09:10N 57°30' E 010°41'0 0.0
2017-Apr-22 08:52N 57°29' E 010°41'0 0.0
2017-Apr-22 07:52N 57°29' E 010°41'0 0.0
2017-Apr-22 07:10N 57°30' E 010°41'0 0.1
2017-Apr-22 06:52N 57°30' E 010°41'0 0.0
2017-Apr-22 05:40N 57°30' E 010°41'0 0.0
2017-Apr-22 05:22N 57°30' E 010°41'0 0.1
2017-Apr-22 04:52N 57°30' E 010°41'0 0.1
2017-Apr-22 04:04N 57°29' E 010°41'0 0.0
2017-Apr-22 03:55N 57°29' E 010°41'0 0.0
2017-Apr-22 03:19N 57°29' E 010°41'0 0.0
2017-Apr-22 02:49N 57°29' E 010°41'0 0.0
2017-Apr-22 02:25N 57°29' E 010°41'0 0.0
2017-Apr-22 01:13N 57°29' E 010°41'0 0.0
2017-Apr-22 00:55N 57°29' E 010°41'0 0.0
2017-Apr-22 00:07N 57°29' E 010°41'0 0.0
2017-Apr-21 23:46N 57°29' E 010°41'0 0.0
2017-Apr-21 23:28N 57°29' E 010°41'0 0.0
2017-Apr-21 22:55N 57°29' E 010°41'0 0.0
2017-Apr-21 22:28N 57°29' E 010°41'0 0.0
2017-Apr-21 21:55N 57°29' E 010°41'0 0.0
2017-Apr-21 21:25N 57°29' E 010°41'0 0.0
2017-Apr-21 20:58N 57°29' E 010°41'0 0.0
2017-Apr-21 20:22N 57°30' E 010°41'0 0.1
2017-Apr-21 19:46N 57°30' E 010°41'0 0.1
2017-Apr-21 19:22N 57°30' E 010°41'0 0.0
2017-Apr-21 18:52N 57°30' E 010°41'0 0.1
2017-Apr-21 18:28N 57°30' E 010°41'0 0.1
2017-Apr-21 17:49N 57°30' E 010°41'0 0.0
2017-Apr-21 17:13N 57°30' E 010°41'0 0.1
2017-Apr-21 16:58N 57°30' E 010°41'0 0.0
2017-Apr-21 16:25N 57°30' E 010°41'0 0.1
2017-Apr-21 15:58N 57°30' E 010°41'0 0.1
2017-Apr-21 15:28N 57°30' E 010°41'0 0.5
2017-Apr-21 14:55N 57°29' E 010°41'1 1.4
2017-Apr-21 14:30N 57°30' E 010°42'9 8.9
2017-Apr-21 13:30N 57°39' E 010°44'5 9.9
2017-Apr-21 12:59N 57°44' E 010°45'4 7.9
2017-Apr-21 12:30N 57°44' E 010°52'4 8.3
2017-Apr-21 11:59N 57°43' E 010°60'4 8.9
2017-Apr-21 11:30N 57°41' E 011°07'5 9.3
2017-Apr-21 11:00N 57°40' E 011°15'5 9.6
2017-Apr-21 10:30N 57°38' E 011°24'5 9.5
2017-Apr-21 10:00N 57°36' E 011°32'4 7.7
2017-Apr-21 09:30N 57°35' E 011°39'4 8.0
2017-Apr-21 09:00N 57°39' E 011°41'4 7.8
2017-Apr-21 08:30N 57°41' E 011°48'2 4.8
2017-Apr-21 08:01N 57°41' E 011°52'0 0.3
2017-Apr-21 07:30N 57°41' E 011°53'0 0.0
2017-Apr-21 06:57N 57°41' E 011°53'0 0.0
2017-Apr-21 06:30N 57°41' E 011°53'0 0.0
2017-Apr-21 06:00N 57°41' E 011°53'0 0.0
2017-Apr-21 05:30N 57°41' E 011°53'0 0.0
2017-Apr-21 05:00N 57°41' E 011°53'0 0.0
2017-Apr-21 04:30N 57°41' E 011°53'0 0.0
2017-Apr-21 03:57N 57°41' E 011°53'0 0.0
2017-Apr-21 03:30N 57°41' E 011°53'0 0.0
2017-Apr-21 03:00N 57°41' E 011°53'0 0.0
2017-Apr-21 02:30N 57°41' E 011°53'0 0.0
2017-Apr-21 02:00N 57°41' E 011°53'0 0.0
2017-Apr-21 01:30N 57°41' E 011°53'0 0.0
2017-Apr-21 01:00N 57°41' E 011°53'0 0.0
2017-Apr-21 00:30N 57°41' E 011°53'0 0.0
2017-Apr-21 00:00N 57°41' E 011°53'0 0.0
2017-Apr-20 23:30N 57°41' E 011°53'0 0.0
2017-Apr-20 23:00N 57°41' E 011°53'0 0.0
2017-Apr-20 22:30N 57°41' E 011°53'0 0.0
2017-Apr-20 22:00N 57°41' E 011°53'0 0.0
2017-Apr-20 21:30N 57°41' E 011°53'0 0.0
2017-Apr-20 21:00N 57°41' E 011°53'0 0.0
2017-Apr-20 20:30N 57°41' E 011°53'0 0.0
2017-Apr-20 20:00N 57°41' E 011°53'0 0.0
2017-Apr-20 19:30N 57°41' E 011°53'0 0.0
2017-Apr-20 19:00N 57°41' E 011°53'0 0.0
2017-Apr-20 18:30N 57°41' E 011°53'0 0.0
2017-Apr-20 18:00N 57°41' E 011°53'0 0.0
2017-Apr-20 17:27N 57°41' E 011°53'0 0.0
2017-Apr-20 16:57N 57°41' E 011°53'0 0.0
2017-Apr-20 16:30N 57°41' E 011°53'0 0.0
2017-Apr-20 16:00N 57°41' E 011°53'0 0.0
2017-Apr-20 15:30N 57°41' E 011°53'0 0.0
2017-Apr-20 15:00N 57°41' E 011°53'0 0.0
2017-Apr-20 14:00N 57°41' E 011°53'0 0.0
2017-Apr-20 13:30N 57°41' E 011°53'0 0.0
2017-Apr-20 13:00N 57°41' E 011°53'0 0.0
2017-Apr-20 12:30N 57°41' E 011°53'0 0.0
2017-Apr-20 12:00N 57°41' E 011°53'0 0.0
2017-Apr-20 11:30N 57°41' E 011°53'0 0.0
2017-Apr-20 11:00N 57°41' E 011°53'0 0.0
2017-Apr-20 10:30N 57°41' E 011°53'0 0.0
2017-Apr-20 10:00N 57°41' E 011°53'0 0.0
2017-Apr-20 09:30N 57°41' E 011°53'0 0.0
2017-Apr-20 09:00N 57°41' E 011°53'0 0.0
2017-Apr-20 08:30N 57°41' E 011°53'0 0.0
2017-Apr-20 08:00N 57°41' E 011°53'0 0.0
2017-Apr-20 07:30N 57°41' E 011°53'0 0.0
2017-Apr-20 07:00N 57°41' E 011°53'0 0.0
2017-Apr-20 06:30N 57°41' E 011°53'0 0.0
2017-Apr-20 06:00N 57°41' E 011°53'0 0.0
2017-Apr-20 05:30N 57°41' E 011°53'0 0.0
2017-Apr-20 05:00N 57°41' E 011°53'0 0.0
2017-Apr-20 04:30N 57°41' E 011°53'0 0.0
2017-Apr-20 04:00N 57°41' E 011°53'0 0.0
2017-Apr-20 03:30N 57°41' E 011°53'0 0.0
2017-Apr-20 03:00N 57°41' E 011°53'0 0.0
2017-Apr-20 02:30N 57°41' E 011°53'0 0.0
2017-Apr-20 02:00N 57°41' E 011°53'0 0.0
2017-Apr-20 01:30N 57°41' E 011°53'0 0.0
2017-Apr-20 01:00N 57°41' E 011°53'0 0.0
2017-Apr-20 00:30N 57°41' E 011°53'0 0.0
2017-Apr-20 00:00N 57°41' E 011°53'0 0.0
2017-Apr-19 23:30N 57°41' E 011°53'0 0.0
2017-Apr-19 23:00N 57°41' E 011°53'0 0.0
2017-Apr-19 22:30N 57°41' E 011°53'0 0.0
2017-Apr-19 22:00N 57°41' E 011°53'0 0.0
2017-Apr-19 21:30N 57°41' E 011°53'0 0.0
2017-Apr-19 21:00N 57°41' E 011°53'0 0.0
2017-Apr-19 20:30N 57°41' E 011°53'0 0.0
2017-Apr-19 20:00N 57°41' E 011°53'0 0.0
2017-Apr-19 19:30N 57°41' E 011°53'0 0.0
2017-Apr-19 19:00N 57°41' E 011°53'0 0.0
2017-Apr-19 18:27N 57°41' E 011°53'0 0.0
2017-Apr-19 17:57N 57°41' E 011°53'0 0.0
2017-Apr-19 17:30N 57°41' E 011°53'0 0.0
2017-Apr-19 17:00N 57°41' E 011°53'0 0.0
2017-Apr-19 16:30N 57°41' E 011°53'0 0.0
2017-Apr-19 16:00N 57°41' E 011°53'0 0.0
2017-Apr-19 15:30N 57°41' E 011°53'0 0.0
2017-Apr-19 15:00N 57°41' E 011°53'0 0.0
2017-Apr-19 14:30N 57°41' E 011°53'0 0.0
2017-Apr-19 13:30N 57°41' E 011°53'0 0.0
2017-Apr-19 13:00N 57°41' E 011°53'0 0.0
2017-Apr-19 12:30N 57°41' E 011°53'0 0.0
2017-Apr-19 12:00N 57°41' E 011°53'0 0.0
2017-Apr-19 11:30N 57°41' E 011°53'0 0.0
2017-Apr-19 11:00N 57°41' E 011°53'0 0.0
2017-Apr-19 10:30N 57°41' E 011°53'0 0.0
2017-Apr-19 10:00N 57°41' E 011°53'0 0.0
2017-Apr-19 09:30N 57°41' E 011°53'0 0.0
2017-Apr-19 09:00N 57°41' E 011°53'0 0.0
2017-Apr-19 08:30N 57°41' E 011°53'0 0.0
2017-Apr-19 08:00N 57°41' E 011°53'0 0.0
2017-Apr-19 07:30N 57°41' E 011°53'0 0.0
2017-Apr-19 07:00N 57°41' E 011°53'0 0.0
2017-Apr-19 06:30N 57°41' E 011°53'0 0.0
2017-Apr-19 06:00N 57°41' E 011°53'0 0.0
2017-Apr-19 05:30N 57°41' E 011°53'0 0.0
2017-Apr-19 05:00N 57°41' E 011°53'0 0.0
2017-Apr-19 04:30N 57°41' E 011°53'0 0.0
2017-Apr-19 04:00N 57°41' E 011°53'0 0.0
2017-Apr-19 03:30N 57°41' E 011°53'0 0.0
2017-Apr-19 03:00N 57°41' E 011°53'0 0.0
2017-Apr-19 02:30N 57°41' E 011°53'0 0.0
2017-Apr-19 01:57N 57°41' E 011°53'0 0.0
2017-Apr-19 01:30N 57°41' E 011°53'0 0.0
2017-Apr-19 01:00N 57°41' E 011°53'0 0.0
2017-Apr-19 00:30N 57°41' E 011°53'0 0.0
2017-Apr-19 00:00N 57°41' E 011°53'0 0.0
2017-Apr-18 23:30N 57°41' E 011°53'0 0.0
2017-Apr-18 23:00N 57°41' E 011°53'0 0.0
2017-Apr-18 22:30N 57°41' E 011°53'0 0.0
2017-Apr-18 22:00N 57°41' E 011°53'0 0.0
2017-Apr-18 21:30N 57°41' E 011°53'0 0.0
2017-Apr-18 21:00N 57°41' E 011°53'0 0.0
2017-Apr-18 20:30N 57°41' E 011°53'0 0.0
2017-Apr-18 20:00N 57°41' E 011°53'0 0.0
2017-Apr-18 19:27N 57°41' E 011°53'0 0.0
2017-Apr-18 19:00N 57°41' E 011°53'0 0.0
2017-Apr-18 18:30N 57°41' E 011°53'0 0.0
2017-Apr-18 18:00N 57°41' E 011°53'0 0.0
2017-Apr-18 17:30N 57°41' E 011°53'0 0.0
2017-Apr-18 17:00N 57°41' E 011°53'0 0.0
2017-Apr-18 16:30N 57°41' E 011°53'0 0.0
2017-Apr-18 15:57N 57°41' E 011°53'0 0.0
2017-Apr-18 15:30N 57°41' E 011°53'0 0.0
2017-Apr-18 15:00N 57°41' E 011°53'0 0.0
2017-Apr-18 14:27N 57°41' E 011°53'0 0.0
2017-Apr-18 13:30N 57°41' E 011°53'0 0.0
2017-Apr-18 13:00N 57°41' E 011°53'0 0.0
2017-Apr-18 12:30N 57°41' E 011°53'0 0.0
2017-Apr-18 12:00N 57°41' E 011°53'0 0.0
2017-Apr-18 11:30N 57°41' E 011°53'0 0.0
2017-Apr-18 11:00N 57°41' E 011°53'0 0.0
2017-Apr-18 10:30N 57°41' E 011°53'0 0.0
2017-Apr-18 10:00N 57°41' E 011°53'0 0.0
2017-Apr-18 09:30N 57°41' E 011°53'0 0.0
2017-Apr-18 09:00N 57°41' E 011°53'0 0.0
2017-Apr-18 08:30N 57°41' E 011°53'0 0.0
2017-Apr-18 08:00N 57°41' E 011°53'0 0.0
2017-Apr-18 07:30N 57°41' E 011°53'0 0.0
2017-Apr-18 07:00N 57°41' E 011°53'0 0.0
2017-Apr-18 06:30N 57°41' E 011°53'0 0.0
2017-Apr-18 06:00N 57°41' E 011°53'0 0.0
2017-Apr-18 05:21N 57°41' E 011°53'0 0.0
2017-Apr-18 05:00N 57°41' E 011°53'0 0.0
2017-Apr-18 04:30N 57°41' E 011°53'0 0.0
2017-Apr-18 04:00N 57°41' E 011°53'0 0.0
2017-Apr-18 03:30N 57°41' E 011°53'0 0.0
2017-Apr-18 03:00N 57°41' E 011°53'0 0.0
2017-Apr-18 02:30N 57°41' E 011°53'0 0.0
2017-Apr-18 02:00N 57°41' E 011°53'0 0.0
2017-Apr-18 01:30N 57°41' E 011°53'0 0.0
2017-Apr-18 01:00N 57°41' E 011°53'0 0.0
2017-Apr-18 00:30N 57°41' E 011°53'0 0.0
2017-Apr-18 00:00N 57°41' E 011°53'0 0.0
2017-Apr-17 23:30N 57°41' E 011°53'0 0.0
2017-Apr-17 23:00N 57°41' E 011°53'0 0.0
2017-Apr-17 22:30N 57°41' E 011°53'0 0.0
2017-Apr-17 22:00N 57°41' E 011°53'0 0.0
2017-Apr-17 21:30N 57°41' E 011°53'0 0.0
2017-Apr-17 21:00N 57°41' E 011°53'0 0.0
2017-Apr-17 20:30N 57°41' E 011°53'0 0.0
2017-Apr-17 20:00N 57°41' E 011°53'0 0.0
2017-Apr-17 19:30N 57°41' E 011°53'0 0.0
2017-Apr-17 19:00N 57°41' E 011°53'0 0.0
2017-Apr-17 18:30N 57°41' E 011°53'0 0.0
2017-Apr-17 18:00N 57°41' E 011°53'0 0.0
2017-Apr-17 17:30N 57°41' E 011°53'0 0.0
2017-Apr-17 17:00N 57°41' E 011°53'0 0.0
2017-Apr-17 16:30N 57°41' E 011°53'0 0.0
2017-Apr-17 15:57N 57°41' E 011°53'0 0.0
2017-Apr-17 15:30N 57°41' E 011°53'0 0.0
2017-Apr-17 15:00N 57°41' E 011°53'0 0.0
2017-Apr-17 14:30N 57°41' E 011°53'0 0.0
2017-Apr-17 13:30N 57°41' E 011°53'0 0.0
2017-Apr-17 13:00N 57°41' E 011°53'0 0.0
2017-Apr-17 12:30N 57°41' E 011°53'0 0.0
2017-Apr-17 12:00N 57°41' E 011°53'0 0.0
2017-Apr-17 11:30N 57°41' E 011°53'0 0.0
2017-Apr-17 10:57N 57°41' E 011°53'0 0.0
2017-Apr-17 10:30N 57°41' E 011°53'0 0.0
2017-Apr-17 10:00N 57°41' E 011°53'0 0.0
2017-Apr-17 09:30N 57°41' E 011°53'0 0.0
2017-Apr-17 09:00N 57°41' E 011°53'0 0.0
2017-Apr-17 08:30N 57°41' E 011°53'0 0.0
2017-Apr-17 08:00N 57°41' E 011°53'0 0.0
2017-Apr-17 07:30N 57°41' E 011°53'0 0.0
2017-Apr-17 07:00N 57°41' E 011°53'0 0.0
2017-Apr-17 06:30N 57°41' E 011°53'0 0.0
2017-Apr-17 06:00N 57°41' E 011°53'0 0.0
2017-Apr-17 05:30N 57°41' E 011°53'0 0.0
2017-Apr-17 05:00N 57°41' E 011°53'0 0.0
2017-Apr-17 04:30N 57°41' E 011°53'0 0.0
2017-Apr-17 04:00N 57°41' E 011°53'0 0.0
2017-Apr-17 03:30N 57°41' E 011°53'0 0.0
2017-Apr-17 03:00N 57°41' E 011°53'0 0.0
2017-Apr-17 02:30N 57°41' E 011°53'0 0.0
2017-Apr-17 02:00N 57°41' E 011°53'0 0.0
2017-Apr-17 01:30N 57°41' E 011°53'0 0.0
2017-Apr-17 01:00N 57°41' E 011°53'0 0.0
2017-Apr-17 00:30N 57°41' E 011°53'0 0.0
2017-Apr-17 00:00N 57°41' E 011°53'0 0.0
2017-Apr-16 23:30N 57°41' E 011°53'0 0.0
2017-Apr-16 23:00N 57°41' E 011°53'0 0.0
2017-Apr-16 22:30N 57°41' E 011°53'0 0.0
2017-Apr-16 22:00N 57°41' E 011°53'0 0.0
2017-Apr-16 21:30N 57°41' E 011°53'0 0.0
2017-Apr-16 21:00N 57°41' E 011°53'0 0.0
2017-Apr-16 20:30N 57°41' E 011°53'0 0.0
2017-Apr-16 20:00N 57°41' E 011°53'0 0.0
2017-Apr-16 19:30N 57°41' E 011°53'0 0.0
2017-Apr-16 19:00N 57°41' E 011°53'0 0.0
2017-Apr-16 18:30N 57°41' E 011°53'0 0.0
2017-Apr-16 18:00N 57°41' E 011°53'0 0.0
2017-Apr-16 17:30N 57°41' E 011°53'0 0.0
2017-Apr-16 17:00N 57°41' E 011°53'0 0.0
2017-Apr-16 16:30N 57°41' E 011°53'0 0.0
2017-Apr-16 16:00N 57°41' E 011°53'0 0.0
2017-Apr-16 15:30N 57°41' E 011°53'0 0.0
2017-Apr-16 15:00N 57°41' E 011°53'0 0.0
2017-Apr-16 14:00N 57°41' E 011°53'0 0.0
2017-Apr-16 13:30N 57°41' E 011°53'0 0.0
2017-Apr-16 13:00N 57°41' E 011°53'0 0.0
2017-Apr-16 12:30N 57°41' E 011°53'0 0.0
2017-Apr-16 12:00N 57°41' E 011°53'0 0.0
2017-Apr-16 11:30N 57°41' E 011°53'0 0.0
2017-Apr-16 11:00N 57°41' E 011°53'0 0.0
2017-Apr-16 10:30N 57°41' E 011°53'0 0.0
2017-Apr-16 10:00N 57°41' E 011°53'0 0.0
2017-Apr-16 09:30N 57°41' E 011°53'0 0.0
2017-Apr-16 09:00N 57°41' E 011°53'0 0.0
2017-Apr-16 08:30N 57°41' E 011°53'0 0.0
2017-Apr-16 08:00N 57°41' E 011°53'0 0.0
2017-Apr-16 07:30N 57°41' E 011°53'0 0.0
2017-Apr-16 07:00N 57°41' E 011°53'0 0.0
2017-Apr-16 06:30N 57°41' E 011°53'0 0.0
2017-Apr-16 06:00N 57°41' E 011°53'0 0.0
2017-Apr-16 05:30N 57°41' E 011°53'0 0.0
2017-Apr-16 05:00N 57°41' E 011°53'0 0.0
2017-Apr-16 04:30N 57°41' E 011°53'0 0.0
2017-Apr-16 03:57N 57°41' E 011°53'0 0.0
2017-Apr-16 03:30N 57°41' E 011°53'0 0.0
2017-Apr-16 03:00N 57°41' E 011°53'0 0.0
2017-Apr-16 02:30N 57°41' E 011°53'0 0.0
2017-Apr-16 02:00N 57°41' E 011°53'0 0.0
2017-Apr-16 01:30N 57°41' E 011°53'0 0.0
2017-Apr-16 01:00N 57°41' E 011°53'0 0.0
2017-Apr-16 00:30N 57°41' E 011°53'0 0.0
2017-Apr-16 00:00N 57°41' E 011°53'0 0.0
2017-Apr-15 23:30N 57°41' E 011°53'0 0.0
2017-Apr-15 23:00N 57°41' E 011°53'0 0.0
2017-Apr-15 22:30N 57°41' E 011°53'0 0.0
2017-Apr-15 22:00N 57°41' E 011°53'0 0.0
2017-Apr-15 21:30N 57°41' E 011°53'0 0.0
2017-Apr-15 21:00N 57°41' E 011°53'0 0.0
2017-Apr-15 20:30N 57°41' E 011°53'0 0.0
2017-Apr-15 20:00N 57°41' E 011°53'0 0.2
2017-Apr-15 19:31N 57°41' E 011°53'2 3.8
2017-Apr-15 19:00N 57°41' E 011°49'4 8.2
2017-Apr-15 18:30N 57°40' E 011°42'510.2
2017-Apr-15 18:00N 57°35' E 011°38'4 8.9
2017-Apr-15 17:31N 57°34' E 011°30'510.3
2017-Apr-15 17:00N 57°37' E 011°23'510.7
2017-Apr-15 16:31N 57°41' E 011°16'510.8
2017-Apr-15 16:00N 57°45' E 011°09'510.0
2017-Apr-15 15:31N 57°48' E 011°02'4 8.7
2017-Apr-15 15:00N 57°51' E 010°56'9 9.2
2017-Apr-15 14:00N 57°52' E 010°39'5 9.8
2017-Apr-15 13:30N 57°52' E 010°29'4 9.1
2017-Apr-15 13:01N 57°52' E 010°21'4 8.8
2017-Apr-15 12:30N 57°52' E 010°13'212 9.4
2017-Apr-14 13:53N 55°08' E 006°07'410.0
2017-Apr-14 13:29N 55°05' E 006°05'5 9.9
2017-Apr-14 13:00N 54°60' E 006°03'5 9.9
2017-Apr-14 12:29N 54°55' E 006°00'5 9.8
2017-Apr-14 12:00N 54°51' E 005°58'5 9.8
2017-Apr-14 11:30N 54°46' E 005°55'5 9.8
2017-Apr-14 10:59N 54°41' E 005°53'5 9.8
2017-Apr-14 10:29N 54°36' E 005°50'510.2
2017-Apr-14 10:01N 54°33' E 005°44'510.6
2017-Apr-14 09:30N 54°30' E 005°36'510.6
2017-Apr-14 08:59N 54°27' E 005°29'510.5
2017-Apr-14 08:30N 54°24' E 005°22'510.4
2017-Apr-14 07:59N 54°20' E 005°15'510.4
2017-Apr-14 07:30N 54°17' E 005°08'510.4
2017-Apr-14 07:00N 54°14' E 005°00'510.2
2017-Apr-14 06:30N 54°11' E 004°54'510.4
2017-Apr-14 05:59N 54°08' E 004°46'510.2
2017-Apr-14 05:30N 54°04' E 004°41'1010.3
2017-Apr-14 04:31N 53°54' E 004°35'  

Dump ship's entire track history